Time;durP1;ratioP1;P1;durP2;ratioP2;P2;SDS_P1;SDS_P2;PMS_P1;PMS_P2;Temp;Humidity;BMP_temperature;BMP_pressure;BME280_temperature;BME280_humidity;BME280_pressure;Samples;Min_cycle;Max_cycle;Signal;HPM_P1;HPM_P2
2021/03/07 00:01:06;;;;;;;8.58;3.25;;;;;;;-3.34;73.34;100497.92;1718959;83;21138;-81
2021/03/07 00:03:34;;;;;;;10.60;3.83;;;;;;;-3.33;73.25;100498.28;1721227;81;21162;-74
2021/03/07 00:06:02;;;;;;;9.40;3.70;;;;;;;-3.34;73.25;100499.27;1718759;83;21194;-73
2021/03/07 00:08:37;;;;;;;10.80;4.00;;;;;;;-3.34;73.06;100491.23;1695357;81;21333;-74
2021/03/07 00:11:06;;;;;;;11.10;4.53;;;;;;;-3.34;73.09;100483.20;1740304;81;21165;-74
2021/03/07 00:13:35;;;;;;;11.33;4.85;;;;;;;-3.33;73.02;100482.72;1742908;81;21678;-75
2021/03/07 00:16:03;;;;;;;;;;;;;;;-3.34;72.92;100476.52;1724055;82;21184;-80
2021/03/07 00:18:35;;;;;;;10.80;4.07;;;;;;;-3.33;72.91;100476.88;1728361;82;20182;-73
2021/03/07 00:21:03;;;;;;;11.70;3.83;;;;;;;-3.34;72.85;100471.69;1699610;83;21518;-80
2021/03/07 00:23:31;;;;;;;10.65;4.20;;;;;;;-3.37;72.84;100470.16;1728942;82;21565;-74
2021/03/07 00:25:59;;;;;;;7.40;3.67;;;;;;;-3.38;72.98;100468.95;1719293;81;21696;-74
2021/03/07 00:28:27;;;;;;;7.92;3.50;;;;;;;-3.41;72.71;100468.77;1732838;83;21203;-74
2021/03/07 00:30:55;;;;;;;8.93;3.60;;;;;;;-3.42;72.75;100469.78;1720248;81;21594;-80
2021/03/07 00:33:24;;;;;;;7.90;3.60;;;;;;;-3.43;72.59;100465.41;1714054;84;21608;-73
2021/03/07 00:35:53;;;;;;;9.27;3.87;;;;;;;-3.42;72.54;100464.44;1713357;81;21160;-76
2021/03/07 00:38:22;;;;;;;8.43;3.47;;;;;;;-3.41;72.28;100461.23;1721926;82;21341;-73
2021/03/07 00:40:50;;;;;;;9.18;3.60;;;;;;;-3.39;72.55;100457.41;1720967;81;21156;-75
2021/03/07 00:43:17;;;;;;;7.87;3.02;;;;;;;-3.39;72.59;100450.72;1722510;83;21610;-75
2021/03/07 00:45:45;;;;;;;7.78;3.20;;;;;;;-3.41;72.24;100453.20;1723496;82;21136;-81
2021/03/07 00:48:13;;;;;;;9.15;3.12;;;;;;;-3.42;72.22;100452.39;1702103;83;21214;-82
2021/03/07 00:50:41;;;;;;;10.23;3.33;;;;;;;-3.40;72.23;100453.07;1660287;83;21157;-72
2021/03/07 00:53:09;;;;;;;8.20;2.83;;;;;;;-3.41;72.54;100448.70;1720459;83;21172;-75
2021/03/07 00:55:37;;;;;;;8.15;3.37;;;;;;;-3.45;72.74;100440.66;1722471;83;22415;-84
2021/03/07 00:58:05;;;;;;;11.12;3.42;;;;;;;-3.47;72.93;100434.63;1733744;80;21749;-82
2021/03/07 01:00:32;;;;;;;7.03;3.10;;;;;;;-3.49;73.11;100435.25;1738585;80;21635;-75
2021/03/07 01:03:03;;;;;;;11.50;3.50;;;;;;;-3.52;73.06;100436.08;1731463;80;21195;-83
2021/03/07 01:05:31;;;;;;;8.03;3.13;;;;;;;-3.54;73.27;100434.88;1724547;82;21148;-82
2021/03/07 01:07:59;;;;;;;7.78;3.15;;;;;;;-3.59;73.43;100425.66;1736700;80;21263;-82
2021/03/07 01:10:43;;;;;;;7.15;3.10;;;;;;;-3.61;73.67;100430.29;1744092;82;21112;-82
2021/03/07 01:13:14;;;;;;;10.00;3.47;;;;;;;-3.65;73.66;100427.59;1743227;80;21164;-74
2021/03/07 01:15:42;;;;;;;7.47;3.37;;;;;;;-3.68;73.76;100441.27;1729212;82;21156;-74
2021/03/07 01:18:11;;;;;;;8.07;3.57;;;;;;;-3.71;73.71;100433.54;1720692;82;21142;-74
2021/03/07 01:20:41;;;;;;;8.07;3.23;;;;;;;-3.71;73.83;100440.23;1707691;84;21256;-81
2021/03/07 01:23:09;;;;;;;6.90;3.20;;;;;;;-3.73;73.71;100433.70;1726861;81;21153;-82
2021/03/07 01:25:37;;;;;;;9.40;3.20;;;;;;;-3.76;73.86;100435.34;1748206;82;21165;-74
2021/03/07 01:28:05;;;;;;;6.55;2.83;;;;;;;-3.75;74.01;100443.72;1721525;81;21270;-82
2021/03/07 01:30:36;;;;;;;7.30;2.95;;;;;;;-3.75;74.03;100439.71;1723406;83;21552;-73
2021/03/07 01:33:06;;;;;;;7.10;2.90;;;;;;;-3.77;73.99;100435.02;1707639;82;21169;-75
2021/03/07 01:35:35;;;;;;;9.83;3.17;;;;;;;-3.76;74.10;100434.50;1720275;83;21888;-80
2021/03/07 01:38:03;;;;;;;8.27;3.73;;;;;;;-3.79;74.03;100436.98;1719945;82;21152;-81
2021/03/07 01:40:36;;;;;;;8.45;3.75;;;;;;;-3.82;74.23;100429.78;1721945;80;21275;-79
2021/03/07 01:43:04;;;;;;;8.80;3.60;;;;;;;-3.86;74.09;100429.23;1732896;82;21167;-71
2021/03/07 01:45:33;;;;;;;10.38;4.40;;;;;;;-3.88;74.25;100437.91;1735545;80;21125;-71
2021/03/07 01:48:05;;;;;;;11.47;4.20;;;;;;;-3.92;74.34;100432.50;1713327;84;21161;-79
2021/03/07 01:50:37;;;;;;;10.17;4.10;;;;;;;-3.97;74.49;100431.62;1719152;80;21173;-71
2021/03/07 01:53:06;;;;;;;11.67;4.23;;;;;;;-3.98;74.63;100424.61;1735765;82;21671;-78
2021/03/07 01:55:36;;;;;;;11.25;4.58;;;;;;;-3.96;74.82;100427.13;1725925;80;21627;-79
2021/03/07 01:58:21;;;;;;;10.80;4.63;;;;;;;-3.99;74.76;100430.09;1724895;82;21192;-74
2021/03/07 02:00:49;;;;;;;10.07;4.10;;;;;;;-4.02;74.81;100433.06;1693884;82;21141;-81
2021/03/07 02:03:17;;;;;;;9.83;3.50;;;;;;;-4.05;74.86;100433.39;1684641;83;21164;-82
2021/03/07 02:05:46;;;;;;;8.65;3.72;;;;;;;-4.07;75.06;100431.34;1708588;82;21157;-81
2021/03/07 02:08:15;;;;;;;7.70;3.33;;;;;;;-4.08;75.46;100430.52;1718292;83;21323;-82
2021/03/07 02:10:56;;;;;;;9.50;4.00;;;;;;;-4.10;75.34;100428.99;1719030;81;21267;-83
2021/03/07 02:13:35;;;;;;;9.20;4.20;;;;;;;-4.12;75.41;100424.27;1724027;82;21226;-83
2021/03/07 02:16:07;;;;;;;6.90;3.47;;;;;;;-4.15;75.56;100417.91;1736821;81;21570;-74
2021/03/07 02:18:38;;;;;;;8.50;3.77;;;;;;;-4.16;75.65;100425.08;1684628;83;21647;-82
2021/03/07 02:21:23;;;;;;;8.47;3.90;;;;;;;-4.17;75.58;100425.22;1743666;81;21154;-81
2021/03/07 02:24:03;;;;;;;9.40;3.60;;;;;;;-4.18;75.73;100419.05;1724031;82;21162;-83
2021/03/07 02:26:33;;;;;;;9.30;3.77;;;;;;;-4.18;76.03;100416.87;1740014;81;21192;-73
2021/03/07 02:29:01;;;;;;;7.93;3.73;;;;;;;-4.17;76.07;100423.39;1714571;83;21648;-75
2021/03/07 02:31:29;;;;;;;10.93;3.52;;;;;;;-4.20;75.97;100424.20;1684326;81;21159;-76
2021/03/07 02:34:02;;;;;;;11.30;3.92;;;;;;;-4.21;76.00;100418.50;1663830;84;21206;-82
2021/03/07 02:36:33;;;;;;;9.70;4.17;;;;;;;-4.26;75.89;100419.45;1707813;84;21161;-82
2021/03/07 02:39:01;;;;;;;10.27;4.57;;;;;;;-4.31;76.12;100425.73;1719385;82;21156;-76
2021/03/07 02:41:30;;;;;;;12.25;4.10;;;;;;;-4.33;76.15;100423.23;1743199;82;21185;-72
2021/03/07 02:43:57;;;;;;;;;;;;;;;-4.34;76.02;100420.69;1716372;81;21254;-81
2021/03/07 02:51:09;;;;;;;10.73;4.07;;;;;;;-4.37;76.30;100420.48;1837385;77;22151;-80
2021/03/07 02:53:37;;;;;;;8.25;3.60;;;;;;;-4.41;76.15;100423.61;1772647;80;21126;-82
2021/03/07 02:56:14;;;;;;;10.30;4.27;;;;;;;-4.39;76.21;100416.28;1758155;81;21161;-84
2021/03/07 02:58:43;;;;;;;12.43;5.10;;;;;;;-4.40;76.00;100420.78;1759369;80;21420;-79
2021/03/07 03:01:15;;;;;;;10.47;4.60;;;;;;;-4.38;76.02;100416.16;1766456;80;21093;-84
2021/03/07 03:03:46;;;;;;;9.83;4.50;;;;;;;-4.38;76.28;100413.48;1773926;80;21172;-77
2021/03/07 03:06:15;;;;;;;8.77;4.13;;;;;;;-4.36;76.36;100406.16;1756543;81;21659;-84
2021/03/07 03:08:49;;;;;;;9.47;3.93;;;;;;;-4.37;75.94;100401.78;1780828;80;21108;-77
2021/03/07 03:11:20;;;;;;;10.33;4.23;;;;;;;-4.43;76.30;100401.07;1758513;81;21127;-76
2021/03/07 03:13:49;;;;;;;7.93;3.80;;;;;;;-4.44;76.48;100401.20;1761431;80;21164;-85
2021/03/07 03:16:17;;;;;;;12.07;3.90;;;;;;;-4.44;76.41;100402.05;1731907;80;21823;-84
2021/03/07 03:18:46;;;;;;;9.63;4.27;;;;;;;-4.48;76.35;100396.67;1774964;80;21133;-76
2021/03/07 03:21:14;;;;;;;9.78;4.75;;;;;;;-4.50;76.56;100395.46;1739828;80;21600;-82
2021/03/07 03:23:42;;;;;;;11.57;4.60;;;;;;;-4.52;76.61;100394.78;1777483;81;21184;-85
2021/03/07 03:26:11;;;;;;;10.50;4.97;;;;;;;-4.54;76.89;100390.09;1744259;80;21240;-84
2021/03/07 03:28:39;;;;;;;8.80;4.00;;;;;;;-4.55;77.03;100385.72;1758883;80;21192;-83
2021/03/07 03:31:07;;;;;;;9.68;4.00;;;;;;;-4.57;76.76;100381.52;1757871;80;21140;-76
2021/03/07 03:33:35;;;;;;;12.95;4.90;;;;;;;-4.61;76.68;100378.81;1772926;80;21171;-77
2021/03/07 03:36:05;;;;;;;10.43;4.97;;;;;;;-4.63;76.84;100369.59;1762320;80;21160;-77
2021/03/07 03:38:50;;;;;;;8.80;4.53;;;;;;;-4.63;76.82;100363.44;1758634;80;21176;-73
2021/03/07 03:41:20;;;;;;;9.27;4.23;;;;;;;-4.64;76.53;100359.92;1724265;81;21181;-71
2021/03/07 03:43:53;;;;;;;9.50;4.20;;;;;;;-4.64;76.70;100354.58;1707222;82;21156;-81
2021/03/07 03:46:21;;;;;;;9.30;3.70;;;;;;;-4.63;76.72;100357.58;1714853;81;21201;-77
2021/03/07 03:48:53;;;;;;;9.03;3.95;;;;;;;-4.62;76.65;100356.60;1701188;84;21136;-84
2021/03/07 03:51:21;;;;;;;8.83;4.70;;;;;;;-4.60;76.53;100351.95;1710267;81;21169;-75
2021/03/07 03:53:49;;;;;;;10.10;4.60;;;;;;;-4.60;76.18;100349.77;1732509;82;21256;-84
2021/03/07 03:56:17;;;;;;;9.88;4.37;;;;;;;-4.58;76.37;100349.14;1695222;82;21662;-82
2021/03/07 03:58:46;;;;;;;11.03;5.03;;;;;;;-4.58;76.11;100355.30;1708636;83;21155;-81
2021/03/07 04:01:17;;;;;;;11.73;5.33;;;;;;;-4.57;75.57;100356.99;1710277;83;21576;-75
2021/03/07 04:03:51;;;;;;;13.17;5.83;;;;;;;-4.60;74.75;100361.29;1727007;81;21185;-73
2021/03/07 04:06:24;;;;;;;13.43;4.97;;;;;;;-4.64;75.29;100358.59;1722919;83;21665;-79
2021/03/07 04:08:53;;;;;;;12.10;4.77;;;;;;;-4.65;74.88;100354.22;1702502;82;21299;-71
2021/03/07 04:11:22;;;;;;;13.23;6.20;;;;;;;-4.65;74.68;100352.05;1722124;83;21577;-70
2021/03/07 04:13:51;;;;;;;11.95;5.12;;;;;;;-4.69;74.53;100359.53;1715585;83;21600;-73
2021/03/07 04:16:19;;;;;;;10.83;4.73;;;;;;;-4.71;74.99;100362.84;1695055;83;21311;-71
2021/03/07 04:18:48;;;;;;;10.93;4.73;;;;;;;-4.70;74.65;100360.50;1731237;81;21153;-79
2021/03/07 04:21:17;;;;;;;11.95;5.03;;;;;;;-4.69;74.91;100353.34;1716059;83;21109;-79
2021/03/07 04:23:45;;;;;;;14.30;5.80;;;;;;;-4.71;74.59;100349.50;1699307;82;21608;-71
2021/03/07 04:26:13;;;;;;;10.48;5.12;;;;;;;-4.73;74.56;100347.97;1711521;83;21601;-73
2021/03/07 04:28:41;;;;;;;11.65;5.75;;;;;;;-4.73;74.74;100347.45;1693776;83;21156;-74
2021/03/07 04:31:09;;;;;;;11.10;5.25;;;;;;;-4.69;74.94;100347.52;1723866;83;21196;-73
2021/03/07 04:33:37;;;;;;;10.40;5.00;;;;;;;-4.67;74.89;100346.02;1692804;82;21196;-72
2021/03/07 04:36:06;;;;;;;;;;;;;;;-4.66;75.05;100344.55;1714547;81;21153;-75
2021/03/07 04:38:34;;;;;;;11.97;4.97;;;;;;;-4.68;74.61;100346.50;1716758;82;21478;-81
2021/03/07 04:41:03;;;;;;;11.57;5.30;;;;;;;-4.67;74.84;100341.52;1700373;83;21190;-75
2021/03/07 04:43:51;;;;;;;12.83;6.00;;;;;;;-4.66;74.49;100337.88;1712777;82;21347;-77
2021/03/07 04:46:23;;;;;;;12.30;5.97;;;;;;;-4.65;74.64;100331.52;1708038;83;21159;-76
2021/03/07 04:48:52;;;;;;;12.83;6.03;;;;;;;-4.61;74.54;100322.25;1713236;82;21672;-76
2021/03/07 04:51:20;;;;;;;13.13;6.73;;;;;;;-4.57;74.48;100317.42;1732184;82;21121;-74
2021/03/07 04:53:48;;;;;;;15.18;6.87;;;;;;;-4.55;73.90;100317.62;1731249;82;21235;-76
2021/03/07 04:56:16;;;;;;;17.65;7.42;;;;;;;-4.50;74.42;100320.67;1697928;82;21186;-76
2021/03/07 04:58:44;;;;;;;16.23;5.95;;;;;;;-4.45;73.70;100319.41;1731237;81;21164;-76
2021/03/07 05:01:12;;;;;;;15.05;6.70;;;;;;;-4.43;74.07;100316.92;1713645;82;21191;-75
2021/03/07 05:03:40;;;;;;;17.35;6.22;;;;;;;-4.38;74.22;100308.45;1713713;82;21694;-80
2021/03/07 05:06:11;;;;;;;16.35;6.95;;;;;;;-4.33;73.79;100308.34;1701488;83;21555;-81
2021/03/07 05:08:40;;;;;;;16.40;6.57;;;;;;;-4.30;73.86;100302.67;1714491;83;21184;-81
2021/03/07 05:11:08;;;;;;;12.13;5.33;;;;;;;-4.25;73.51;100303.05;1700874;83;21181;-76
2021/03/07 05:13:36;;;;;;;14.65;5.03;;;;;;;-4.19;73.10;100302.94;1707580;83;21655;-82
2021/03/07 05:16:04;;;;;;;11.20;4.67;;;;;;;-4.15;73.12;100301.66;1702133;83;21157;-81
2021/03/07 05:18:32;;;;;;;;;;;;;;;-4.12;72.37;100302.66;1702326;83;21139;-73
2021/03/07 05:21:01;;;;;;;10.03;3.93;;;;;;;-4.06;72.73;100306.07;1712516;83;20207;-74
2021/03/07 05:23:29;;;;;;;9.48;4.00;;;;;;;-4.02;72.66;100310.10;1710733;83;21204;-73
2021/03/07 05:25:57;;;;;;;9.73;3.72;;;;;;;-3.96;72.09;100306.83;1715986;83;21239;-80
2021/03/07 05:28:25;;;;;;;9.15;4.00;;;;;;;-3.91;71.77;100305.86;1699354;83;21168;-79
2021/03/07 05:30:53;;;;;;;9.55;4.70;;;;;;;-3.91;70.71;100299.18;1699849;84;21195;-80
2021/03/07 05:33:21;;;;;;;8.23;3.87;;;;;;;-3.89;70.96;100291.84;1725976;83;21200;-78
2021/03/07 05:35:51;;;;;;;10.73;3.80;;;;;;;-3.83;70.47;100295.73;1698699;83;21750;-74
2021/03/07 05:38:20;;;;;;;;;;;;;;;-3.77;70.39;100298.64;1729048;82;21271;-79
2021/03/07 05:40:48;;;;;;;10.90;4.37;;;;;;;-3.70;70.29;100306.38;1725358;83;20164;-73
2021/03/07 05:43:17;;;;;;;8.00;3.80;;;;;;;-3.65;69.22;100301.39;1718702;81;21120;-74
2021/03/07 05:45:46;;;;;;;7.60;3.77;;;;;;;-3.60;67.66;100297.75;1697048;83;21201;-71
2021/03/07 05:48:14;;;;;;;9.93;4.30;;;;;;;-3.54;68.81;100301.11;1717104;82;21129;-73
2021/03/07 05:50:44;;;;;;;9.30;3.97;;;;;;;-3.47;68.99;100296.84;1747181;81;21247;-79
2021/03/07 05:53:12;;;;;;;10.90;4.60;;;;;;;-3.38;68.74;100294.53;1726853;81;21169;-81
2021/03/07 05:55:40;;;;;;;12.40;4.15;;;;;;;-3.29;68.16;100294.09;1711952;81;21579;-81
2021/03/07 05:58:08;;;;;;;8.58;3.87;;;;;;;-3.21;67.31;100293.63;1712213;82;21195;-76
2021/03/07 06:00:36;;;;;;;7.67;3.58;;;;;;;-3.12;67.56;100293.66;1723092;82;21154;-74
2021/03/07 06:03:05;;;;;;;9.48;3.55;;;;;;;-3.03;66.46;100290.02;1711517;82;21282;-75
2021/03/07 06:05:34;;;;;;;10.27;4.03;;;;;;;-2.97;64.68;100286.70;1706278;84;21251;-81
2021/03/07 06:08:02;;;;;;;9.88;4.05;;;;;;;-2.88;64.55;100284.38;1694243;83;21225;-75
2021/03/07 06:10:30;;;;;;;11.65;4.20;;;;;;;-2.83;63.95;100285.58;1724217;81;21255;-81
2021/03/07 06:13:09;;;;;;;10.43;4.40;;;;;;;-2.68;64.04;100283.11;1713341;82;21735;-81
2021/03/07 06:15:38;;;;;;;8.50;3.77;;;;;;;-2.68;64.04;100283.11;1729046;82;21226;-80
2021/03/07 06:18:19;;;;;;;10.17;4.10;;;;;;;-2.59;62.88;100279.47;1711480;82;21231;-72
2021/03/07 06:20:53;;;;;;;9.83;3.90;;;;;;;-2.49;63.43;100271.28;1707972;82;21330;-80
2021/03/07 06:23:34;;;;;;;9.97;3.60;;;;;;;-2.38;62.99;100270.98;1711665;82;21460;-79
2021/03/07 06:26:10;;;;;;;11.20;4.50;;;;;;;-2.31;62.14;100272.83;1706489;82;21207;-73
2021/03/07 06:28:39;;;;;;;8.93;3.40;;;;;;;-2.25;60.88;100268.65;1677423;84;21191;-74
2021/03/07 06:31:27;;;;;;;9.98;4.03;;;;;;;-2.21;60.93;100253.89;1689219;83;21168;-72
2021/03/07 06:33:56;;;;;;;;;;;;;;;-2.15;60.87;100260.75;1733801;82;21167;-80
2021/03/07 06:36:25;;;;;;;10.50;3.83;;;;;;;-2.09;61.01;100256.58;1715323;82;20714;-80
2021/03/07 06:39:06;;;;;;;8.30;3.20;;;;;;;-2.02;60.35;100257.08;1725622;82;21473;-73
2021/03/07 06:41:34;;;;;;;10.90;4.57;;;;;;;-1.96;59.38;100244.84;1716952;82;21232;-80
2021/03/07 06:44:14;;;;;;;11.40;4.07;;;;;;;-1.89;58.76;100242.31;1713731;82;21216;-73
2021/03/07 06:46:45;;;;;;;14.10;3.37;;;;;;;-1.84;58.95;100246.66;1718138;82;21274;-80
2021/03/07 06:49:26;;;;;;;11.10;3.40;;;;;;;-1.80;57.39;100224.72;1707351;83;21160;-78
2021/03/07 06:52:01;;;;;;;13.97;3.50;;;;;;;-1.79;57.72;100226.87;1718861;82;21159;-78
2021/03/07 06:54:28;;;;;;;17.13;4.27;;;;;;;-1.71;58.01;100225.52;1722625;82;21129;-77
2021/03/07 06:56:57;;;;;;;13.20;4.10;;;;;;;-1.61;57.38;100214.09;1718645;82;21196;-71
2021/03/07 06:59:24;;;;;;;8.73;3.40;;;;;;;-1.55;56.92;100210.25;1728109;83;21224;-80
2021/03/07 07:01:54;;;;;;;9.53;3.72;;;;;;;-1.51;56.81;100206.69;1723548;82;21287;-71
2021/03/07 07:04:25;;;;;;;8.67;3.30;;;;;;;-1.50;57.22;100198.98;1707943;83;21168;-79
2021/03/07 07:07:12;;;;;;;8.80;4.03;;;;;;;-1.42;58.04;100192.25;1708616;82;21199;-80
2021/03/07 07:09:42;;;;;;;17.33;4.30;;;;;;;-1.33;58.26;100195.23;1698414;83;21215;-78
2021/03/07 07:12:24;;;;;;;11.30;3.70;;;;;;;-1.24;57.19;100200.91;1710903;83;21231;-71
2021/03/07 07:15:13;;;;;;;12.97;3.60;;;;;;;-1.21;56.68;100184.42;1713492;83;21683;-74
2021/03/07 07:17:41;;;;;;;;;;;;;;;-1.13;57.32;100182.21;1711495;82;21146;-73
2021/03/07 07:20:12;;;;;;;11.00;3.67;;;;;;;-1.09;55.56;100170.97;1715699;83;20208;-75
2021/03/07 07:22:40;;;;;;;10.47;3.60;;;;;;;-1.05;55.92;100175.46;1705935;83;21168;-80
2021/03/07 07:25:09;;;;;;;10.95;3.47;;;;;;;-0.99;55.77;100154.63;1712364;83;21339;-79
2021/03/07 07:27:37;;;;;;;9.37;3.10;;;;;;;-0.93;55.60;100153.39;1689571;83;21612;-71
2021/03/07 07:30:09;;;;;;;22.15;4.67;;;;;;;-0.86;55.09;100144.95;1705195;83;21200;-81
2021/03/07 07:32:43;;;;;;;9.07;3.43;;;;;;;-0.82;54.47;100141.41;1687164;83;21275;-81
2021/03/07 07:35:24;;;;;;;9.13;3.73;;;;;;;-0.75;54.48;100133.80;1721844;83;21313;-80
2021/03/07 07:38:01;;;;;;;8.83;3.13;;;;;;;-0.66;53.58;100143.46;1703721;83;21156;-80
2021/03/07 07:40:41;;;;;;;7.87;2.90;;;;;;;-0.60;52.11;100133.01;1701194;83;21188;-80
2021/03/07 07:43:10;;;;;;;9.80;2.97;;;;;;;-0.56;52.41;100128.97;1720599;82;21255;-80
2021/03/07 07:45:38;;;;;;;9.70;3.20;;;;;;;-0.52;52.24;100136.98;1707660;82;21155;-82
2021/03/07 07:48:08;;;;;;;6.70;2.90;;;;;;;-0.53;51.28;100115.98;1712014;83;21522;-80
2021/03/07 07:50:39;;;;;;;8.40;2.97;;;;;;;-0.54;51.01;100125.58;1693745;83;21306;-74
2021/03/07 07:53:16;;;;;;;11.53;2.60;;;;;;;-0.58;50.72;100118.91;1717326;83;21184;-75
2021/03/07 07:55:58;;;;;;;12.63;3.37;;;;;;;-0.55;50.94;100113.14;1723646;81;21207;-80
2021/03/07 07:58:42;;;;;;;13.37;3.33;;;;;;;-0.50;51.24;100105.37;1710390;83;21172;-72
2021/03/07 08:01:13;;;;;;;9.77;2.70;;;;;;;-0.46;51.36;100098.64;1710122;82;21204;-72
2021/03/07 08:03:47;;;;;;;8.70;2.73;;;;;;;-0.44;50.25;100115.41;1711207;82;21164;-80
2021/03/07 08:06:32;;;;;;;8.63;2.67;;;;;;;-0.48;49.35;100100.14;1729259;81;21184;-82
2021/03/07 08:09:00;;;;;;;15.40;3.40;;;;;;;-0.54;49.67;100091.98;1702328;83;21200;-73
2021/03/07 08:11:30;;;;;;;12.20;3.45;;;;;;;-0.43;50.97;100092.91;1714459;82;21414;-72
2021/03/07 08:14:02;;;;;;;10.00;3.40;;;;;;;-0.34;50.96;100095.83;1731076;82;21174;-72
2021/03/07 08:16:42;;;;;;;9.83;3.10;;;;;;;-0.21;51.07;100093.36;1727682;81;21779;-79
2021/03/07 08:19:19;;;;;;;10.30;3.37;;;;;;;-0.13;49.94;100093.28;1733845;81;21260;-80
2021/03/07 08:22:04;;;;;;;8.30;2.97;;;;;;;-0.06;50.29;100088.83;1693937;83;21152;-73
2021/03/07 08:24:58;;;;;;;10.03;3.00;;;;;;;-0.01;49.99;100085.91;1705233;82;21188;-78
2021/03/07 08:27:35;;;;;;;8.20;3.20;;;;;;;0.01;49.23;100096.48;1710034;83;21130;-79
2021/03/07 08:30:10;;;;;;;8.23;2.43;;;;;;;0.02;50.15;100086.05;1712775;83;21707;-81
2021/03/07 08:32:41;;;;;;;10.03;4.20;;;;;;;0.02;49.10;100081.18;1710176;82;21201;-82
2021/03/07 08:35:19;;;;;;;17.40;3.27;;;;;;;0.04;50.61;100085.86;1709453;83;21180;-83
2021/03/07 08:38:13;;;;;;;12.47;3.90;;;;;;;0.04;49.41;100072.41;1708433;82;21422;-76
2021/03/07 08:40:55;;;;;;;9.83;3.37;;;;;;;-0.04;49.74;100063.91;1709155;83;21141;-74
2021/03/07 08:43:29;;;;;;;12.47;3.67;;;;;;;-0.02;50.05;100063.21;1682566;83;21144;-79
2021/03/07 08:46:17;;;;;;;9.50;3.63;;;;;;;0.10;51.08;100059.06;1703258;83;21190;-81
2021/03/07 08:48:49;;;;;;;7.07;3.57;;;;;;;0.20;50.49;100054.23;1709771;83;21249;-77
2021/03/07 08:51:19;;;;;;;11.13;4.40;;;;;;;0.23;50.36;100061.09;1722103;81;21299;-80
2021/03/07 08:53:46;;;;;;;10.87;3.70;;;;;;;0.22;50.53;100049.49;1715825;82;21328;-79
2021/03/07 08:56:14;;;;;;;12.45;3.45;;;;;;;0.26;50.79;100037.31;1707251;82;21188;-81
2021/03/07 08:58:47;;;;;;;14.05;4.25;;;;;;;0.27;50.28;100051.11;1713062;82;21803;-84
2021/03/07 09:01:15;;;;;;;13.83;3.97;;;;;;;0.31;50.83;100033.55;1712668;82;21172;-82
2021/03/07 09:03:55;;;;;;;15.78;4.00;;;;;;;0.35;50.78;100036.20;1712495;82;21151;-83
2021/03/07 09:06:32;;;;;;;9.87;3.80;;;;;;;0.41;51.13;100025.17;1719491;82;21431;-76
2021/03/07 09:09:16;;;;;;;7.97;3.70;;;;;;;0.43;50.48;100005.11;1711093;82;21189;-79
2021/03/07 09:11:59;;;;;;;13.13;3.70;;;;;;;0.45;50.99;100014.36;1715268;81;21599;-82
2021/03/07 09:14:37;;;;;;;14.97;4.00;;;;;;;0.51;51.10;100018.47;1721217;81;21117;-82
2021/03/07 09:17:22;;;;;;;9.30;4.00;;;;;;;0.58;51.37;100013.98;1692545;82;21164;-82
2021/03/07 09:19:50;;;;;;;6.87;3.23;;;;;;;0.58;50.67;99999.17;1731056;81;21152;-76
2021/03/07 09:22:26;;;;;;;9.75;3.25;;;;;;;0.51;50.19;100002.31;1699801;83;21221;-79
2021/03/07 09:25:09;;;;;;;7.80;3.67;;;;;;;0.52;51.25;99986.99;1692263;82;21210;-80
2021/03/07 09:27:40;;;;;;;8.43;3.47;;;;;;;0.58;51.07;99981.67;1716637;82;21283;-77
2021/03/07 09:30:21;;;;;;;7.93;3.23;;;;;;;0.58;50.38;99966.05;1712389;82;21167;-78
2021/03/07 09:32:50;;;;;;;8.17;3.50;;;;;;;0.62;50.56;99957.89;1710374;82;21141;-80
2021/03/07 09:35:28;;;;;;;8.37;3.27;;;;;;;0.70;50.39;99958.28;1710969;82;21912;-78
2021/03/07 09:38:00;;;;;;;8.70;2.87;;;;;;;0.80;51.33;99951.55;1719560;82;21247;-79
2021/03/07 09:40:35;;;;;;;9.00;3.17;;;;;;;0.86;50.46;99965.58;1722353;81;21133;-79
2021/03/07 09:43:07;;;;;;;9.60;3.50;;;;;;;0.84;49.48;99946.59;1731123;81;21186;-77
2021/03/07 09:45:42;;;;;;;7.80;3.60;;;;;;;0.88;50.08;99943.84;1727745;81;21195;-78
2021/03/07 09:48:12;;;;;;;8.60;3.07;;;;;;;0.97;49.76;99948.90;1710210;83;21134;-77
2021/03/07 09:50:42;;;;;;;8.43;3.17;;;;;;;1.01;50.03;99938.58;1729607;81;21194;-77
2021/03/07 09:53:10;;;;;;;8.13;3.10;;;;;;;1.09;49.81;99926.28;1737464;81;21125;-79
2021/03/07 09:55:39;;;;;;;11.60;3.33;;;;;;;1.14;49.92;99929.22;1693705;83;21170;-78
2021/03/07 09:58:10;;;;;;;10.47;3.43;;;;;;;1.17;49.36;99925.63;1718527;81;21186;-79
2021/03/07 10:00:40;;;;;;;12.93;4.23;;;;;;;1.20;50.02;99909.08;1717156;83;21164;-78
2021/03/07 10:03:25;;;;;;;7.23;3.50;;;;;;;1.25;49.70;99899.04;1719095;81;21158;-76
2021/03/07 10:06:18;;;;;;;12.47;3.43;;;;;;;1.25;48.61;99911.17;1737500;82;21297;-78
2021/03/07 10:08:49;;;;;;;10.37;3.00;;;;;;;1.21;48.58;99903.98;1719384;81;21197;-76
2021/03/07 10:11:23;;;;;;;13.90;3.10;;;;;;;1.24;48.92;99886.07;1727951;81;21276;-78
2021/03/07 10:14:03;;;;;;;11.23;3.27;;;;;;;1.31;49.10;99883.44;1726414;81;21263;-76
2021/03/07 10:16:34;;;;;;;14.30;3.50;;;;;;;1.28;48.14;99873.05;1714252;83;21608;-76
2021/03/07 10:19:13;;;;;;;12.97;3.63;;;;;;;1.35;48.87;99866.33;1723611;82;21120;-76
2021/03/07 10:21:42;;;;;;;7.50;3.20;;;;;;;1.44;48.98;99859.77;1720646;82;21544;-79
2021/03/07 10:24:17;;;;;;;10.53;3.00;;;;;;;1.54;48.86;99835.45;1716660;82;21156;-79
2021/03/07 10:26:50;;;;;;;18.00;4.10;;;;;;;1.59;48.02;99846.47;1708882;82;21173;-77
2021/03/07 10:29:27;;;;;;;9.27;3.43;;;;;;;1.61;48.64;99840.86;1693220;83;21170;-79
2021/03/07 10:32:18;;;;;;;10.27;3.87;;;;;;;1.58;48.17;99846.64;1743243;81;21144;-79
2021/03/07 10:34:50;;;;;;;9.20;3.67;;;;;;;1.52;48.49;99822.66;1730414;81;21161;-79
2021/03/07 10:37:42;;;;;;;11.57;4.13;;;;;;;1.62;49.59;99821.77;1705781;81;21149;-77
2021/03/07 10:40:13;;;;;;;11.40;3.73;;;;;;;1.74;48.98;99817.47;1723348;82;21160;-78
2021/03/07 10:42:43;;;;;;;15.63;3.83;;;;;;;1.77;48.12;99818.94;1724185;83;21154;-77
2021/03/07 10:45:22;;;;;;;14.63;4.43;;;;;;;1.77;48.30;99795.45;1723927;81;21149;-79
2021/03/07 10:48:08;;;;;;;17.00;4.23;;;;;;;1.79;48.88;99807.41;1709104;83;21172;-79
2021/03/07 10:50:47;;;;;;;15.87;4.80;;;;;;;1.79;48.32;99793.41;1693209;82;21212;-79
2021/03/07 10:53:17;;;;;;;12.80;4.10;;;;;;;1.73;48.69;99783.42;1724440;82;21905;-79
2021/03/07 10:55:51;;;;;;;15.80;5.60;;;;;;;1.68;48.30;99783.20;1707277;81;21260;-79
2021/03/07 10:58:20;;;;;;;11.00;4.73;;;;;;;1.63;48.35;99760.05;1720403;82;21192;-77
2021/03/07 11:00:48;;;;;;;10.68;3.95;;;;;;;1.57;48.26;99754.11;1731231;82;21244;-79
2021/03/07 11:03:17;;;;;;;9.28;3.85;;;;;;;1.59;49.20;99752.58;1674747;83;21731;-80
2021/03/07 11:05:45;;;;;;;9.60;4.17;;;;;;;1.63;49.15;99747.91;1730917;81;21183;-80
2021/03/07 11:08:14;;;;;;;15.28;4.80;;;;;;;1.73;49.42;99748.35;1700752;83;21168;-80
2021/03/07 11:10:42;;;;;;;9.73;3.70;;;;;;;1.83;49.21;99725.85;1719425;83;22170;-80
2021/03/07 11:13:10;;;;;;;13.80;3.85;;;;;;;1.92;49.38;99734.05;1728368;82;21187;-82
2021/03/07 11:15:38;;;;;;;12.05;3.77;;;;;;;1.93;48.86;99722.75;1740540;81;21599;-83
2021/03/07 11:18:06;;;;;;;10.65;3.80;;;;;;;1.96;49.15;99712.06;1721990;82;21219;-80
2021/03/07 11:20:34;;;;;;;10.08;3.90;;;;;;;1.99;49.37;99702.20;1735206;82;21565;-78
2021/03/07 11:23:02;;;;;;;42.95;4.55;;;;;;;1.91;48.35;99702.72;1725420;82;21168;-77
2021/03/07 11:25:31;;;;;;;13.07;4.20;;;;;;;1.90;48.63;99714.55;1731518;82;21176;-77
2021/03/07 11:27:59;;;;;;;12.65;3.98;;;;;;;1.91;49.02;99685.70;1716847;82;21187;-82
2021/03/07 11:30:27;;;;;;;10.48;3.77;;;;;;;1.92;49.20;99692.22;1727394;82;21577;-79
2021/03/07 11:32:55;;;;;;;10.28;4.35;;;;;;;1.92;50.08;99682.78;1719728;82;21170;-77
2021/03/07 11:35:24;;;;;;;12.37;4.20;;;;;;;1.92;49.07;99685.48;1717150;82;21216;-81
2021/03/07 11:37:52;;;;;;;7.97;4.22;;;;;;;1.98;49.68;99673.55;1689274;82;21236;-80
2021/03/07 11:40:20;;;;;;;9.85;4.83;;;;;;;2.05;49.20;99644.16;1656074;84;21609;-81
2021/03/07 11:42:48;;;;;;;8.70;4.78;;;;;;;2.14;49.85;99660.48;1706986;82;21703;-81
2021/03/07 11:45:16;;;;;;;14.13;6.00;;;;;;;2.18;49.63;99632.52;1706968;84;21205;-78
2021/03/07 11:47:44;;;;;;;10.55;4.72;;;;;;;2.20;49.96;99652.06;1725792;82;21208;-79
2021/03/07 11:50:13;;;;;;;13.25;5.08;;;;;;;2.26;50.23;99659.31;1719705;82;21231;-79
2021/03/07 11:52:40;;;;;;;9.43;4.72;;;;;;;2.20;49.50;99649.37;1710562;82;21205;-80